Time;durP1;ratioP1;P1;durP2;ratioP2;P2;SDS_P1;SDS_P2;PMS_P1;PMS_P2;Temp;Humidity;BMP_temperature;BMP_pressure;BME280_temperature;BME280_humidity;BME280_pressure;Samples;Min_cycle;Max_cycle;Signal;HPM_P1;HPM_P2
2023/04/03 00:01:12;;;;;;;2.58;0.47;;;2.00;99.90;;;;;;4766386;30;20056;-81
2023/04/03 00:03:38;;;;;;;2.33;0.47;;;2.00;99.90;;;;;;4752594;30;20818;-80
2023/04/03 00:06:06;;;;;;;2.97;0.30;;;2.10;99.90;;;;;;4752147;30;20134;-80
2023/04/03 00:08:32;;;;;;;2.55;0.77;;;2.00;99.90;;;;;;4766801;30;20052;-80
2023/04/03 00:10:58;;;;;;;1.23;0.40;;;2.00;99.90;;;;;;4765301;30;20047;-81
2023/04/03 00:13:25;;;;;;;2.47;0.30;;;2.00;99.90;;;;;;4746199;30;20048;-79
2023/04/03 00:15:50;;;;;;;1.95;0.30;;;1.90;99.90;;;;;;4765250;30;20100;-80
2023/04/03 00:18:16;;;;;;;1.70;0.57;;;2.00;99.90;;;;;;4750654;30;20052;-81
2023/04/03 00:20:42;;;;;;;1.25;0.28;;;2.00;99.90;;;;;;4751601;30;20052;-80
2023/04/03 00:23:07;;;;;;;2.10;0.50;;;2.00;99.90;;;;;;4762618;30;20056;-81
2023/04/03 00:25:33;;;;;;;1.83;0.25;;;2.00;99.90;;;;;;4766545;30;20047;-80
2023/04/03 00:28:00;;;;;;;1.80;0.40;;;1.90;99.90;;;;;;4766106;30;20047;-81
2023/04/03 00:30:26;;;;;;;1.95;0.28;;;2.00;99.90;;;;;;4749817;30;20044;-81
2023/04/03 00:32:52;;;;;;;1.00;0.30;;;1.90;99.90;;;;;;4765003;30;20066;-81
2023/04/03 00:35:19;;;;;;;1.13;0.30;;;1.90;99.90;;;;;;4767735;30;20050;-81
2023/04/03 00:37:45;;;;;;;1.15;0.25;;;1.90;99.90;;;;;;4751070;30;20055;-81
2023/04/03 00:40:13;;;;;;;2.92;0.40;;;1.90;99.90;;;;;;4748849;30;20054;-81
2023/04/03 00:42:41;;;;;;;1.38;0.32;;;1.90;99.90;;;;;;4747368;30;20538;-80
2023/04/03 00:45:45;;;;;;;1.30;0.40;;;1.80;99.90;;;;;;4752098;30;20090;-81
2023/04/03 00:48:15;;;;;;;2.80;0.47;;;1.80;99.90;;;;;;4702675;30;20102;-80
2023/04/03 00:50:42;;;;;;;1.10;0.25;;;1.70;99.90;;;;;;4704229;30;20060;-80
2023/04/03 00:53:14;;;;;;;1.88;0.32;;;1.70;99.90;;;;;;4740229;30;20308;-80
2023/04/03 00:55:41;;;;;;;3.20;0.75;;;1.70;99.90;;;;;;4752145;30;20128;-80
2023/04/03 00:58:07;;;;;;;2.25;0.50;;;1.60;99.90;;;;;;4770911;30;20047;-81
2023/04/03 01:00:34;;;;;;;1.85;0.43;;;1.60;99.90;;;;;;4754142;30;20132;-81
2023/04/03 01:03:00;;;;;;;0.75;0.28;;;1.60;99.90;;;;;;4750461;30;20043;-81
2023/04/03 01:05:26;;;;;;;3.80;0.35;;;1.50;99.90;;;;;;4748563;30;20047;-80
2023/04/03 01:07:52;;;;;;;2.33;0.55;;;1.50;99.90;;;;;;4751043;30;20379;-80
2023/04/03 01:10:20;;;;;;;1.70;0.40;;;1.50;99.90;;;;;;4753164;30;20046;-80
2023/04/03 01:12:49;;;;;;;3.17;0.57;;;1.40;99.90;;;;;;4768385;30;20105;-80
2023/04/03 01:15:24;;;;;;;2.35;0.45;;;1.40;99.90;;;;;;4769688;30;20396;-80
2023/04/03 01:17:51;;;;;;;3.88;0.45;;;1.40;99.90;;;;;;4752191;30;20057;-81
2023/04/03 01:20:32;;;;;;;2.97;0.60;;;1.50;99.90;;;;;;4754202;30;20598;-80
2023/04/03 01:23:09;;;;;;;2.15;0.70;;;1.40;99.90;;;;;;4754474;30;20040;-81
2023/04/03 01:25:44;;;;;;;1.38;0.30;;;1.40;99.90;;;;;;4769767;30;20635;-80
2023/04/03 01:28:15;;;;;;;1.65;0.30;;;1.40;99.90;;;;;;4748708;30;20052;-81
2023/04/03 01:30:59;;;;;;;3.70;0.70;;;1.30;99.90;;;;;;4769102;30;20062;-80
2023/04/03 01:33:25;;;;;;;2.28;0.47;;;1.40;99.90;;;;;;4753116;30;20048;-80
2023/04/03 01:35:50;;;;;;;3.95;0.57;;;1.20;99.90;;;;;;4752917;30;20185;-81
2023/04/03 01:38:16;;;;;;;4.32;0.98;;;1.30;99.90;;;;;;4749087;30;20126;-81
2023/04/03 01:40:41;;;;;;;2.88;0.70;;;1.30;99.90;;;;;;4769000;30;20048;-81
2023/04/03 01:43:07;;;;;;;3.70;0.40;;;1.30;99.90;;;;;;4770667;30;20125;-80
2023/04/03 01:45:33;;;;;;;3.28;0.40;;;1.30;99.90;;;;;;4755580;30;20523;-80
2023/04/03 01:47:59;;;;;;;3.10;0.63;;;1.20;99.90;;;;;;4768525;30;20055;-81
2023/04/03 01:50:24;;;;;;;2.70;0.40;;;1.20;99.90;;;;;;4770119;30;20050;-80
2023/04/03 01:52:50;;;;;;;0.95;0.30;;;1.20;99.90;;;;;;4768332;30;20051;-80
2023/04/03 01:55:16;;;;;;;4.30;0.40;;;1.10;99.90;;;;;;4767518;30;20126;-80
2023/04/03 01:57:41;;;;;;;3.80;0.60;;;1.10;99.90;;;;;;4764360;30;20073;-81
2023/04/03 02:00:07;;;;;;;3.58;0.50;;;1.10;99.90;;;;;;4767782;30;20039;-80
2023/04/03 02:02:33;;;;;;;2.60;0.45;;;1.10;99.90;;;;;;4751561;30;20504;-80
2023/04/03 02:04:59;;;;;;;2.60;0.55;;;1.10;99.90;;;;;;4752435;30;20137;-80
2023/04/03 02:07:24;;;;;;;7.10;0.60;;;1.10;99.90;;;;;;4769086;30;20047;-81
2023/04/03 02:09:50;;;;;;;4.65;1.00;;;1.10;99.90;;;;;;4751921;30;20069;-80
2023/04/03 02:12:15;;;;;;;1.02;0.40;;;1.10;99.90;;;;;;4767202;30;20052;-80
2023/04/03 02:14:41;;;;;;;4.15;0.73;;;1.10;99.90;;;;;;4750317;30;20140;-80
2023/04/03 02:17:08;;;;;;;1.60;0.50;;;1.10;99.90;;;;;;4768601;30;20495;-81
2023/04/03 02:19:35;;;;;;;3.80;0.35;;;1.10;99.90;;;;;;4768740;30;20051;-80
2023/04/03 02:22:02;;;;;;;2.58;0.50;;;1.10;99.90;;;;;;4748892;30;20067;-80
2023/04/03 02:24:28;;;;;;;2.47;0.65;;;1.00;99.90;;;;;;4752400;30;20062;-81
2023/04/03 02:26:53;;;;;;;3.60;0.80;;;1.00;99.90;;;;;;4750598;30;20412;-81
2023/04/03 02:29:19;;;;;;;4.65;0.93;;;0.90;99.90;;;;;;4768805;30;20071;-80
2023/04/03 02:31:45;;;;;;;2.67;0.60;;;1.00;99.90;;;;;;4748725;30;20453;-80
2023/04/03 02:34:11;;;;;;;2.22;0.45;;;0.90;99.90;;;;;;4764727;30;20060;-80
2023/04/03 02:36:37;;;;;;;2.50;0.77;;;0.80;99.90;;;;;;4752439;30;20052;-81
2023/04/03 02:39:03;;;;;;;2.30;0.60;;;0.80;99.90;;;;;;4767396;30;20503;-81
2023/04/03 02:41:34;;;;;;;2.88;0.60;;;0.70;99.90;;;;;;4765419;30;20502;-81
2023/04/03 02:44:00;;;;;;;1.75;0.88;;;0.70;99.90;;;;;;4766116;30;20445;-81
2023/04/03 02:46:26;;;;;;;3.30;0.68;;;0.60;99.90;;;;;;4748559;30;20054;-81
2023/04/03 02:48:51;;;;;;;0.95;0.50;;;0.70;99.90;;;;;;4751547;30;20043;-81
2023/04/03 02:51:17;;;;;;;2.72;0.82;;;0.60;99.90;;;;;;4753251;30;20040;-80
2023/04/03 02:53:43;;;;;;;3.28;0.80;;;0.60;99.90;;;;;;4753374;30;20412;-80
2023/04/03 02:56:09;;;;;;;3.22;0.60;;;0.50;99.90;;;;;;4749482;30;20157;-81
2023/04/03 02:58:35;;;;;;;6.15;0.80;;;0.50;99.90;;;;;;4768202;30;20062;-81
2023/04/03 03:01:01;;;;;;;3.30;0.80;;;0.50;99.90;;;;;;4750476;30;20067;-81
2023/04/03 03:03:26;;;;;;;10.13;3.28;;;0.40;99.90;;;;;;4752589;30;20051;-81
2023/04/03 03:06:07;;;;;;;4.00;0.60;;;0.40;99.90;;;;;;4765313;30;20047;-81
2023/04/03 03:08:33;;;;;;;4.60;0.55;;;0.40;99.90;;;;;;4750969;30;20414;-81
2023/04/03 03:10:59;;;;;;;4.55;0.70;;;0.40;99.90;;;;;;4767116;30;20052;-80
2023/04/03 03:13:25;;;;;;;2.78;0.98;;;0.40;99.90;;;;;;4767193;30;20066;-80
2023/04/03 03:15:50;;;;;;;4.20;0.52;;;0.30;99.90;;;;;;4735872;30;20423;-79
2023/04/03 03:18:17;;;;;;;4.13;0.50;;;0.30;99.90;;;;;;4767371;30;20090;-80
2023/04/03 03:20:42;;;;;;;1.50;0.63;;;0.30;99.90;;;;;;4766485;30;20071;-80
2023/04/03 03:23:08;;;;;;;5.80;0.80;;;0.40;99.90;;;;;;4752406;30;20059;-81
2023/04/03 03:25:38;;;;;;;3.83;0.82;;;0.40;99.90;;;;;;4750833;30;20048;-80
2023/04/03 03:28:04;;;;;;;4.82;0.70;;;0.30;99.90;;;;;;4752604;30;20051;-80
2023/04/03 03:30:30;;;;;;;8.13;1.30;;;0.40;99.90;;;;;;4750356;30;20619;-81
2023/04/03 03:32:55;;;;;;;2.70;0.65;;;0.40;99.90;;;;;;4766152;30;20082;-80
2023/04/03 03:35:21;;;;;;;2.38;0.60;;;0.30;99.90;;;;;;4766629;30;20069;-81
2023/04/03 03:37:46;;;;;;;5.43;0.60;;;0.20;99.90;;;;;;4751889;30;20079;-81
2023/04/03 03:40:12;;;;;;;1.92;0.60;;;0.20;99.90;;;;;;4762720;30;20126;-81
2023/04/03 03:42:38;;;;;;;5.47;1.10;;;0.20;99.90;;;;;;4750834;30;20537;-81
2023/04/03 03:45:05;;;;;;;3.63;0.70;;;0.20;99.90;;;;;;4764301;30;20060;-81
2023/04/03 03:47:30;;;;;;;5.78;0.80;;;0.10;99.90;;;;;;4766721;30;20410;-81
2023/04/03 03:49:56;;;;;;;2.65;0.60;;;0.00;99.90;;;;;;4750462;30;20051;-81
2023/04/03 03:52:22;;;;;;;4.18;0.82;;;0.00;99.90;;;;;;4766912;30;20058;-80
2023/04/03 03:54:47;;;;;;;6.53;1.00;;;0.00;99.90;;;;;;4752248;30;20060;-81
2023/04/03 03:57:13;;;;;;;1.27;0.40;;;-0.10;99.90;;;;;;4767952;30;20047;-81
2023/04/03 03:59:40;;;;;;;5.68;0.95;;;0.00;99.90;;;;;;4764982;30;20058;-81
2023/04/03 04:02:05;;;;;;;5.60;0.85;;;-0.10;99.90;;;;;;4749828;30;20471;-80
2023/04/03 04:04:31;;;;;;;4.05;0.70;;;-0.20;99.90;;;;;;4751954;30;20083;-80
2023/04/03 04:06:57;;;;;;;3.85;0.93;;;-0.20;99.90;;;;;;4747623;30;20101;-81
2023/04/03 04:09:22;;;;;;;3.72;0.77;;;-0.20;99.90;;;;;;4749544;30;20058;-80
2023/04/03 04:11:48;;;;;;;6.35;0.90;;;-0.20;99.90;;;;;;4766031;30;20075;-80
2023/04/03 04:14:13;;;;;;;4.32;0.75;;;-0.10;99.90;;;;;;4768510;30;20055;-81
2023/04/03 04:16:39;;;;;;;6.40;1.38;;;-0.20;99.90;;;;;;4764545;30;20531;-80
2023/04/03 04:19:05;;;;;;;4.90;0.90;;;-0.20;99.90;;;;;;4763866;30;20048;-80
2023/04/03 04:21:30;;;;;;;6.20;0.98;;;-0.20;99.90;;;;;;4767725;30;20055;-80
2023/04/03 04:23:56;;;;;;;4.43;0.90;;;-0.20;99.90;;;;;;4768551;30;20059;-81
2023/04/03 04:26:21;;;;;;;4.28;1.00;;;-0.30;99.90;;;;;;4754870;30;20102;-81
2023/04/03 04:28:47;;;;;;;5.95;2.22;;;-0.30;99.90;;;;;;4755157;30;20056;-82
2023/04/03 04:31:12;;;;;;;5.40;1.10;;;-0.40;99.90;;;;;;4751263;30;20051;-82
2023/04/03 04:33:41;;;;;;;8.52;1.08;;;-0.30;99.90;;;;;;4753626;30;20495;-82
2023/04/03 04:36:09;;;;;;;8.43;1.58;;;-0.40;99.90;;;;;;4754661;30;20047;-81
2023/04/03 04:38:35;;;;;;;5.82;1.00;;;-0.50;99.90;;;;;;4767940;30;20069;-80
2023/04/03 04:41:01;;;;;;;4.70;1.10;;;-0.30;99.90;;;;;;4768952;30;20047;-81
2023/04/03 04:43:26;;;;;;;8.25;2.30;;;-0.20;99.90;;;;;;4758836;30;20078;-81
2023/04/03 04:46:09;;;;;;;4.57;1.40;;;-0.40;99.90;;;;;;4769329;30;20051;-80
2023/04/03 04:48:35;;;;;;;4.07;1.02;;;-0.40;99.90;;;;;;4768585;30;20105;-80
2023/04/03 04:51:01;;;;;;;4.25;1.33;;;-0.40;99.90;;;;;;4766802;30;20109;-80
2023/04/03 04:53:27;;;;;;;5.20;1.60;;;-0.30;99.90;;;;;;4752361;30;20052;-79
2023/04/03 04:55:53;;;;;;;6.15;1.30;;;0.10;99.90;;;;;;4754592;30;20430;-81
2023/04/03 04:58:19;;;;;;;4.80;1.58;;;-0.30;99.90;;;;;;4752941;30;20047;-82
2023/04/03 05:00:45;;;;;;;7.03;1.67;;;-0.20;99.90;;;;;;4749699;30;20058;-83
2023/04/03 05:03:11;;;;;;;5.95;2.00;;;-0.30;99.90;;;;;;4754057;30;20123;-82
2023/04/03 05:05:37;;;;;;;4.07;1.55;;;-0.30;99.90;;;;;;4763596;30;20098;-82
2023/04/03 05:08:03;;;;;;;8.00;1.30;;;-0.30;99.90;;;;;;4753010;30;20138;-83
2023/04/03 05:10:29;;;;;;;5.20;1.13;;;-0.20;99.90;;;;;;4754749;30;20105;-83
2023/04/03 05:12:54;;;;;;;6.20;1.30;;;-0.20;99.90;;;;;;4752569;30;20158;-81
2023/04/03 05:15:20;;;;;;;7.47;1.40;;;0.10;99.90;;;;;;4753086;30;20163;-80
2023/04/03 05:17:46;;;;;;;4.45;1.65;;;0.10;99.90;;;;;;4751686;30;20050;-81
2023/04/03 05:20:12;;;;;;;7.82;1.50;;;0.10;99.90;;;;;;4768967;30;20043;-81
2023/04/03 05:22:38;;;;;;;3.42;1.17;;;0.30;99.90;;;;;;4761679;30;20058;-83
2023/04/03 05:25:05;;;;;;;3.45;1.08;;;0.50;99.90;;;;;;4751322;30;20059;-81
2023/04/03 05:27:30;;;;;;;7.25;1.67;;;0.60;99.90;;;;;;4752931;30;20055;-81
2023/04/03 05:29:56;;;;;;;5.13;1.02;;;0.90;99.90;;;;;;4751605;30;20970;-83
2023/04/03 05:32:23;;;;;;;4.22;1.38;;;1.10;99.90;;;;;;4749064;30;20051;-80
2023/04/03 05:34:49;;;;;;;5.70;1.67;;;1.50;99.90;;;;;;4763124;30;20048;-81
2023/04/03 05:37:15;;;;;;;3.75;0.85;;;1.80;99.90;;;;;;4756118;30;20046;-81
2023/04/03 05:39:40;;;;;;;4.72;1.10;;;2.30;99.90;;;;;;4766995;30;20761;-79
2023/04/03 05:42:07;;;;;;;5.93;1.40;;;2.80;99.90;;;;;;4756046;30;20187;-80
2023/04/03 05:44:33;;;;;;;6.55;1.20;;;3.30;99.90;;;;;;4774117;30;20407;-80
2023/04/03 05:46:58;;;;;;;3.45;1.15;;;3.80;99.90;;;;;;4774079;30;20048;-80
2023/04/03 05:49:24;;;;;;;6.75;1.45;;;4.30;99.90;;;;;;4755303;30;20139;-81
2023/04/03 05:51:51;;;;;;;4.53;0.98;;;4.90;99.90;;;;;;4769183;30;20052;-81
2023/04/03 05:54:29;;;;;;;5.78;1.17;;;5.20;99.90;;;;;;4752632;30;20127;-81
2023/04/03 05:56:55;;;;;;;5.38;1.63;;;5.60;99.90;;;;;;4756802;30;20067;-82
2023/04/03 05:59:21;;;;;;;6.97;1.55;;;6.20;99.90;;;;;;4754707;30;20052;-83
2023/04/03 06:01:47;;;;;;;3.78;1.23;;;6.80;99.90;;;;;;4755142;30;20051;-82
2023/04/03 06:04:14;;;;;;;5.18;1.20;;;7.50;99.90;;;;;;4755210;30;20087;-82
2023/04/03 06:06:44;;;;;;;5.80;1.67;;;7.90;99.90;;;;;;4770394;30;20067;-82
2023/04/03 06:09:09;;;;;;;5.03;1.40;;;8.00;99.90;;;;;;4751463;30;20108;-82
2023/04/03 06:11:35;;;;;;;4.00;1.35;;;8.10;99.90;;;;;;4762828;30;20051;-82
2023/04/03 06:14:01;;;;;;;5.10;1.00;;;8.70;99.90;;;;;;4764358;30;20183;-82
2023/04/03 06:16:26;;;;;;;3.60;1.10;;;9.20;99.90;;;;;;4764084;30;20101;-83
2023/04/03 06:18:52;;;;;;;3.45;0.75;;;9.70;99.90;;;;;;4763119;30;20151;-83
2023/04/03 06:21:17;;;;;;;3.88;0.85;;;10.00;99.90;;;;;;4751868;30;20121;-82
2023/04/03 06:23:43;;;;;;;4.15;1.20;;;10.60;99.90;;;;;;4768572;30;20060;-82
2023/04/03 06:26:08;;;;;;;3.90;1.10;;;10.50;99.90;;;;;;4766260;30;20066;-83
2023/04/03 06:28:34;;;;;;;2.15;0.90;;;10.50;99.90;;;;;;4751602;30;20096;-83
2023/04/03 06:31:00;;;;;;;2.60;1.02;;;11.10;99.90;;;;;;4749311;30;20531;-83
2023/04/03 06:33:26;;;;;;;4.03;1.20;;;11.50;99.90;;;;;;4768805;30;20456;-83
2023/04/03 06:35:57;;;;;;;3.75;1.10;;;11.80;99.90;;;;;;4769926;30;20080;-83
2023/04/03 06:38:22;;;;;;;4.30;1.45;;;12.20;99.90;;;;;;4753879;30;20051;-83
2023/04/03 06:40:48;;;;;;;6.63;1.42;;;12.70;99.80;;;;;;4767164;30;20055;-83
2023/04/03 06:43:13;;;;;;;2.90;1.00;;;12.30;99.20;;;;;;4766743;30;20050;-83
2023/04/03 06:45:39;;;;;;;3.35;1.10;;;12.10;98.50;;;;;;4767257;30;20178;-83
2023/04/03 06:48:05;;;;;;;5.38;1.08;;;11.90;99.30;;;;;;4768417;30;20131;-83
2023/04/03 06:50:30;;;;;;;6.78;1.35;;;11.10;98.90;;;;;;4766017;30;20129;-83
2023/04/03 06:52:56;;;;;;;2.58;1.17;;;10.50;99.30;;;;;;4769260;30;20081;-83
2023/04/03 06:55:22;;;;;;;3.90;1.10;;;10.30;99.90;;;;;;4768006;30;20055;-84
2023/04/03 06:57:47;;;;;;;3.67;1.45;;;10.30;99.90;;;;;;4767714;30;20052;-83
2023/04/03 07:00:14;;;;;;;5.97;1.10;;;10.10;99.90;;;;;;4753767;30;20130;-84
2023/04/03 07:02:40;;;;;;;3.40;1.20;;;10.70;99.70;;;;;;4753547;30;20055;-84
2023/04/03 07:05:06;;;;;;;3.33;1.05;;;11.10;99.90;;;;;;4768703;30;20491;-83
2023/04/03 07:07:33;;;;;;;5.05;1.35;;;11.50;98.70;;;;;;4767364;30;20094;-84
2023/04/03 07:09:59;;;;;;;7.70;1.42;;;10.90;98.50;;;;;;4768922;30;20048;-83
2023/04/03 07:12:26;;;;;;;4.28;1.00;;;10.60;98.50;;;;;;4768719;30;20702;-81
2023/04/03 07:14:51;;;;;;;4.63;1.08;;;11.00;99.10;;;;;;4770354;30;20056;-83
2023/04/03 07:17:17;;;;;;;2.33;0.82;;;10.70;98.80;;;;;;4754472;30;20514;-82
2023/04/03 07:19:42;;;;;;;4.85;1.40;;;9.50;99.40;;;;;;4770934;30;20039;-82
2023/04/03 07:22:20;;;;;;;5.35;0.95;;;9.00;99.90;;;;;;4769803;30;20092;-83
2023/04/03 07:24:46;;;;;;;6.45;1.40;;;8.90;99.90;;;;;;4770291;30;20134;-82
2023/04/03 07:27:14;;;;;;;4.10;1.00;;;8.50;99.90;;;;;;4773964;30;20094;-83
2023/04/03 07:29:40;;;;;;;5.55;1.10;;;8.00;99.90;;;;;;4772543;30;20298;-82
2023/04/03 07:32:06;;;;;;;5.05;1.20;;;7.30;99.90;;;;;;4760017;30;20040;-82
2023/04/03 07:34:32;;;;;;;4.68;1.42;;;7.00;99.90;;;;;;4759645;30;20055;-82
2023/04/03 07:36:58;;;;;;;4.68;1.75;;;6.90;99.90;;;;;;4773938;30;20040;-83
2023/04/03 07:39:24;;;;;;;6.28;1.05;;;6.40;99.90;;;;;;4772357;30;20051;-82
2023/04/03 07:41:50;;;;;;;4.53;0.90;;;6.10;99.90;;;;;;4743608;30;20048;-80
2023/04/03 07:44:16;;;;;;;7.40;1.25;;;5.90;99.90;;;;;;4774587;30;20516;-82
2023/04/03 07:46:42;;;;;;;3.50;1.05;;;5.80;99.90;;;;;;4775701;30;20048;-83
2023/04/03 07:49:08;;;;;;;5.65;0.70;;;5.70;99.90;;;;;;4775519;30;20047;-82
2023/04/03 07:51:34;;;;;;;2.40;0.90;;;5.60;99.90;;;;;;4773870;30;20036;-82
2023/04/03 07:54:00;;;;;;;3.67;0.88;;;5.40;99.90;;;;;;4772123;30;20063;-82
2023/04/03 07:56:25;;;;;;;5.32;1.00;;;5.30;99.90;;;;;;4758854;30;20051;-83
2023/04/03 07:58:51;;;;;;;6.47;1.02;;;5.30;99.90;;;;;;4774691;30;20051;-81
2023/04/03 08:01:17;;;;;;;3.88;1.25;;;5.40;99.90;;;;;;4760041;30;20082;-83
2023/04/03 08:03:43;;;;;;;4.18;1.00;;;5.40;99.90;;;;;;4774135;30;20047;-84
2023/04/03 08:06:09;;;;;;;4.53;1.15;;;5.50;99.90;;;;;;4743183;30;20120;-83
2023/04/03 08:08:35;;;;;;;6.15;1.25;;;5.60;99.90;;;;;;4775324;30;20043;-83
2023/04/03 08:11:02;;;;;;;2.70;0.70;;;5.70;99.90;;;;;;4742088;30;20052;-84
2023/04/03 08:13:28;;;;;;;5.20;1.10;;;5.70;99.90;;;;;;4758035;30;20047;-83
2023/04/03 08:15:56;;;;;;;3.42;0.88;;;5.70;99.90;;;;;;4760220;30;20035;-84
2023/04/03 08:18:26;;;;;;;4.55;1.20;;;5.80;99.90;;;;;;4761582;30;20051;-83
2023/04/03 08:20:52;;;;;;;3.67;0.65;;;5.90;99.90;;;;;;4764015;30;20055;-83
2023/04/03 08:23:18;;;;;;;2.97;0.90;;;6.50;99.90;;;;;;4781471;30;20123;-83
2023/04/03 08:25:46;;;;;;;2.67;0.68;;;6.10;99.90;;;;;;4762758;30;20102;-83
2023/04/03 08:28:18;;;;;;;2.45;0.95;;;6.20;99.90;;;;;;4732734;30;20075;-84
2023/04/03 08:30:45;;;;;;;4.32;1.15;;;6.40;99.90;;;;;;4774003;30;20044;-83
2023/04/03 08:33:11;;;;;;;1.63;0.57;;;6.50;99.90;;;;;;4743372;30;20558;-83
2023/04/03 08:35:41;;;;;;;3.53;0.70;;;7.60;99.90;;;;;;4775985;30;20067;-82
2023/04/03 08:38:07;;;;;;;4.72;1.10;;;6.90;99.90;;;;;;4779104;30;20048;-83
2023/04/03 08:40:33;;;;;;;3.75;0.50;;;6.90;99.90;;;;;;4780442;30;20059;-83
2023/04/03 08:43:21;;;;;;;2.08;0.50;;;6.90;99.90;;;;;;4780920;30;20047;-84
2023/04/03 08:45:56;;;;;;;2.53;0.93;;;6.90;99.90;;;;;;4747442;30;20055;-84
2023/04/03 08:48:33;;;;;;;3.60;0.60;;;6.90;99.90;;;;;;4779166;30;20056;-82
2023/04/03 08:51:05;;;;;;;2.10;0.50;;;7.30;99.90;;;;;;4776822;30;20047;-82
2023/04/03 08:53:35;;;;;;;3.70;0.55;;;7.50;99.90;;;;;;4764738;30;20101;-82
2023/04/03 08:56:12;;;;;;;3.08;0.40;;;7.70;99.90;;;;;;4761456;30;20111;-78
2023/04/03 08:58:44;;;;;;;4.03;0.40;;;7.90;99.90;;;;;;4774133;30;20064;-84
2023/04/03 09:01:46;;;;;;;2.47;0.40;;;7.90;99.90;;;;;;4767868;30;20084;-82
2023/04/03 09:04:14;;;;;;;2.33;0.38;;;7.80;99.80;;;;;;4757345;30;21590;-83
2023/04/03 09:06:45;;;;;;;1.05;0.28;;;7.70;98.30;;;;;;4760759;30;20051;-84
2023/04/03 09:09:40;;;;;;;3.03;0.57;;;7.70;98.00;;;;;;4759875;30;20052;-84
2023/04/03 09:12:26;;;;;;;3.10;0.60;;;7.60;98.90;;;;;;4773852;30;20060;-84
2023/04/03 09:19:28;;;;;;;1.98;0.30;;;7.90;98.80;;;;;;4690315;30;20117;-84
2023/04/03 09:22:01;;;;;;;2.00;0.30;;;7.70;98.00;;;;;;4699002;30;20049;-84
2023/04/03 09:24:31;;;;;;;1.77;0.35;;;7.60;97.40;;;;;;4753358;30;20059;-84
2023/04/03 09:27:07;;;;;;;0.63;0.20;;;7.70;98.60;;;;;;4743349;30;20061;-85
2023/04/03 09:29:42;;;;;;;1.55;0.40;;;7.90;98.80;;;;;;4762914;30;20039;-84
2023/04/03 09:32:28;;;;;;;2.00;0.73;;;7.90;99.10;;;;;;4767623;30;20050;-84
2023/04/03 09:34:59;;;;;;;1.10;0.32;;;7.90;96.90;;;;;;4758289;30;20511;-84
2023/04/03 09:37:46;;;;;;;3.97;0.70;;;8.10;96.70;;;;;;4767177;30;20069;-85
2023/04/03 09:40:31;;;;;;;1.17;0.20;;;8.20;98.00;;;;;;4761207;30;21486;-84
2023/04/03 09:42:59;;;;;;;1.10;0.22;;;8.20;96.10;;;;;;4760758;30;20048;-81
2023/04/03 09:45:35;;;;;;;1.50;0.20;;;8.00;96.60;;;;;;4778932;30;20436;-86
2023/04/03 09:48:12;;;;;;;0.70;0.20;;;8.00;96.20;;;;;;4760541;30;20083;-82
2023/04/03 09:50:48;;;;;;;1.17;0.17;;;7.60;94.70;;;;;;4772337;30;20047;-83
2023/04/03 09:53:37;;;;;;;2.53;0.40;;;8.10;95.90;;;;;;4754556;30;20713;-84
2023/04/03 09:56:16;;;;;;;2.63;0.30;;;8.00;94.70;;;;;;4754682;30;20050;-84
2023/04/03 09:58:45;;;;;;;1.52;0.25;;;8.10;95.40;;;;;;4756343;30;20060;-82
2023/04/03 10:01:31;;;;;;;2.38;0.30;;;8.20;95.50;;;;;;4759657;30;20051;-82
2023/04/03 10:04:18;;;;;;;3.58;0.75;;;8.30;94.80;;;;;;4770160;30;20051;-84
2023/04/03 10:06:56;;;;;;;3.83;0.40;;;8.40;95.30;;;;;;4766538;30;20048;-83
2023/04/03 10:09:58;;;;;;;3.83;0.45;;;8.20;94.20;;;;;;4768831;30;20936;-84
2023/04/03 10:12:29;;;;;;;1.77;0.38;;;8.20;95.90;;;;;;4769293;30;20503;-83
2023/04/03 10:15:23;;;;;;;2.17;0.40;;;8.30;95.80;;;;;;4751231;30;20055;-83
2023/04/03 10:18:08;;;;;;;2.17;0.88;;;8.40;96.00;;;;;;4753050;30;20056;-85
2023/04/03 10:20:49;;;;;;;1.10;0.20;;;8.60;95.90;;;;;;4771581;30;20052;-84
2023/04/03 10:23:30;;;;;;;2.08;0.30;;;8.50;94.60;;;;;;4772222;30;20047;-84
2023/04/03 10:26:10;;;;;;;1.40;0.30;;;8.50;94.50;;;;;;4766190;30;20079;-84
2023/04/03 10:29:08;;;;;;;1.13;0.30;;;8.50;96.00;;;;;;4755161;30;20043;-84
2023/04/03 10:32:02;;;;;;;1.70;0.47;;;8.50;94.40;;;;;;4755138;30;20048;-85
2023/04/03 10:34:42;;;;;;;1.85;0.57;;;8.60;97.00;;;;;;4763424;30;20058;-84
2023/04/03 10:37:19;;;;;;;1.48;0.30;;;8.60;95.30;;;;;;4759202;30;20039;-84
2023/04/03 10:40:24;;;;;;;1.95;0.38;;;8.50;94.50;;;;;;4755640;30;20411;-83
2023/04/03 10:43:07;;;;;;;2.30;0.32;;;8.40;95.70;;;;;;4771514;30;20048;-83
2023/04/03 10:45:51;;;;;;;3.40;1.30;;;8.50;95.30;;;;;;4769983;30;20047;-83
2023/04/03 10:48:45;;;;;;;0.85;0.30;;;8.50;94.80;;;;;;4759016;30;20491;-83
2023/04/03 10:51:34;;;;;;;1.05;0.20;;;8.60;93.90;;;;;;4752635;30;20146;-84
2023/04/03 10:54:13;;;;;;;1.58;0.40;;;8.40;92.00;;;;;;4754087;30;20079;-83
2023/04/03 10:56:53;;;;;;;2.53;0.30;;;8.40;93.80;;;;;;4740766;30;20055;-84
2023/04/03 10:59:26;;;;;;;2.60;0.47;;;8.40;94.90;;;;;;4768148;30;20055;-85
2023/04/03 11:02:12;;;;;;;1.20;0.30;;;8.80;94.50;;;;;;4768344;30;20063;-85
2023/04/03 11:04:43;;;;;;;1.63;0.28;;;9.20;95.20;;;;;;4738819;30;20511;-84
2023/04/03 11:07:38;;;;;;;2.38;0.40;;;9.10;94.80;;;;;;4753725;30;20040;-84
2023/04/03 11:10:21;;;;;;;2.17;0.73;;;9.20;93.70;;;;;;4749222;30;20104;-84
2023/04/03 11:12:57;;;;;;;4.63;0.73;;;9.20;94.80;;;;;;4765953;30;20048;-86
2023/04/03 11:15:25;;;;;;;2.13;0.40;;;9.30;94.20;;;;;;4762357;30;20118;-86
2023/04/03 11:18:11;;;;;;;0.40;0.20;;;9.20;93.00;;;;;;4750181;30;20048;-85
2023/04/03 11:20:39;;;;;;;1.42;0.35;;;9.10;93.50;;;;;;4765909;30;20040;-85
2023/04/03 11:23:33;;;;;;;1.20;0.30;;;8.90;93.00;;;;;;4768401;30;20043;-85
2023/04/03 11:26:09;;;;;;;2.17;0.30;;;8.90;93.40;;;;;;4751862;30;20048;-85
2023/04/03 11:29:05;;;;;;;1.73;0.30;;;9.10;94.90;;;;;;4770344;30;20060;-86
2023/04/03 11:31:59;;;;;;;0.60;0.20;;;9.20;94.50;;;;;;4770361;30;20130;-85
2023/04/03 11:34:47;;;;;;;3.60;0.88;;;8.90;94.10;;;;;;4757726;30;20503;-85
2023/04/03 11:37:51;;;;;;;2.05;0.28;;;9.10;95.20;;;;;;4755242;30;20048;-85
2023/04/03 11:40:19;;;;;;;2.25;0.40;;;9.00;93.80;;;;;;4755349;30;20085;-83
2023/04/03 11:43:20;;;;;;;2.08;0.30;;;9.00;93.60;;;;;;4770795;30;20055;-84
2023/04/03 11:46:04;;;;;;;1.55;0.30;;;9.00;93.00;;;;;;4761963;30;20047;-84
2023/04/03 11:48:31;;;;;;;3.65;0.60;;;9.10;93.80;;;;;;4765119;30;20144;-85
2023/04/03 11:50:58;;;;;;;2.45;0.35;;;8.90;93.40;;;;;;4775676;30;20048;-85
2023/04/03 11:53:36;;;;;;;1.55;0.52;;;9.10;95.10;;;;;;4744668;30;20047;-82
2023/04/03 11:56:04;;;;;;;2.00;0.35;;;9.10;94.20;;;;;;4756880;30;20054;-82
2023/04/03 11:58:34;;;;;;;1.33;0.30;;;9.10;95.70;;;;;;4770576;30;20526;-82
2023/04/03 12:01:07;;;;;;;3.20;0.35;;;9.80;96.40;;;;;;4773764;30;20078;-82
2023/04/03 12:03:39;;;;;;;1.17;0.30;;;9.20;95.30;;;;;;4773122;30;20063;-82
2023/04/03 12:06:11;;;;;;;3.25;1.13;;;9.20;95.40;;;;;;4756742;30;20047;-82
2023/04/03 12:08:40;;;;;;;0.55;0.20;;;9.00;93.30;;;;;;4767330;30;20048;-82
2023/04/03 12:11:08;;;;;;;2.20;0.52;;;8.80;93.40;;;;;;4773314;30;20083;-82
2023/04/03 12:13:35;;;;;;;2.03;0.77;;;8.90;95.60;;;;;;4772119;30;20036;-82
2023/04/03 12:16:03;;;;;;;4.32;0.90;;;8.90;94.90;;;;;;4742649;30;20055;-82
2023/04/03 12:18:43;;;;;;;1.58;0.30;;;8.90;94.40;;;;;;4756822;30;20044;-82
2023/04/03 12:21:12;;;;;;;1.35;0.28;;;9.00;94.30;;;;;;4755410;30;20096;-82
2023/04/03 12:24:05;;;;;;;2.05;0.50;;;9.00;95.80;;;;;;4772290;30;20047;-82
2023/04/03 12:26:46;;;;;;;3.00;0.50;;;9.10;94.80;;;;;;4757009;30;20048;-82
2023/04/03 12:29:25;;;;;;;1.95;0.32;;;9.10;95.70;;;;;;4774444;30;20043;-83
2023/04/03 12:32:10;;;;;;;4.63;0.98;;;9.10;96.40;;;;;;4775093;30;20656;-82
2023/04/03 12:34:39;;;;;;;4.03;0.95;;;9.10;94.60;;;;;;4775365;30;20040;-82
2023/04/03 12:37:21;;;;;;;2.60;0.40;;;9.00;96.00;;;;;;4751742;30;20040;-82
2023/04/03 12:40:04;;;;;;;3.83;0.95;;;9.00;93.80;;;;;;4774408;30;20052;-82
2023/04/03 12:42:42;;;;;;;1.15;0.40;;;9.10;94.70;;;;;;4755825;30;20056;-82
2023/04/03 12:45:19;;;;;;;3.33;0.70;;;9.10;94.60;;;;;;4777150;30;20134;-82
2023/04/03 12:47:47;;;;;;;4.43;0.52;;;9.10;95.50;;;;;;4760792;30;20095;-83
2023/04/03 12:50:29;;;;;;;0.80;0.30;;;9.30;94.20;;;;;;4759898;30;20118;-83
2023/04/03 12:53:38;;;;;;;0.98;0.40;;;9.30;95.60;;;;;;4758501;30;20051;-82
2023/04/03 12:56:27;;;;;;;0.63;0.45;;;9.10;95.30;;;;;;4730201;30;20132;-82
2023/04/03 12:58:55;;;;;;;1.73;0.40;;;9.10;93.80;;;;;;4777231;30;20048;-82
2023/04/03 13:01:25;;;;;;;2.80;0.40;;;9.00;93.70;;;;;;4777594;30;20059;-82
2023/04/03 13:03:56;;;;;;;2.95;0.50;;;9.10;94.20;;;;;;4776807;30;20052;-82
2023/04/03 13:06:37;;;;;;;2.58;0.50;;;9.10;94.00;;;;;;4773842;30;20047;-82
2023/04/03 13:09:04;;;;;;;2.08;0.50;;;9.10;95.10;;;;;;4759916;30;20051;-82
2023/04/03 13:11:41;;;;;;;2.67;0.57;;;9.00;95.30;;;;;;4770375;30;20062;-82
2023/04/03 13:14:20;;;;;;;2.97;0.85;;;9.50;94.90;;;;;;4775571;30;20040;-81
2023/04/03 13:17:11;;;;;;;2.38;0.40;;;9.30;95.30;;;;;;4757095;30;20565;-82
2023/04/03 13:19:37;;;;;;;1.45;0.30;;;9.30;94.90;;;;;;4753937;30;20377;-83